Time;durP1;ratioP1;P1;durP2;ratioP2;P2;SDS_P1;SDS_P2;PMS_P1;PMS_P2;Temp;Humidity;BMP_temperature;BMP_pressure;BME280_temperature;BME280_humidity;BME280_pressure;Samples;Min_cycle;Max_cycle;Signal;HPM_P1;HPM_P2
2023/09/03 00:00:22;;;;;;;17.30;12.70;;;;;;;;;;5094866;28;20040;-75
2023/09/03 00:02:48;;;;;;;16.58;11.88;;;;;;;;;;5078410;28;20396;-75
2023/09/03 00:05:15;;;;;;;17.30;11.60;;;;;;;;;;5094012;28;20040;-75
2023/09/03 00:07:41;;;;;;;19.80;13.32;;;;;;;;;;5094855;28;20040;-75
2023/09/03 00:10:07;;;;;;;16.95;12.75;;;15.70;99.90;;;;;;5094727;28;20564;-75
2023/09/03 00:12:33;;;;;;;19.08;12.05;;;;;;;;;;5077770;28;20048;-75
2023/09/03 00:14:59;;;;;;;20.08;13.80;;;;;;;;;;5094373;28;20372;-75
2023/09/03 00:17:25;;;;;;;20.63;14.30;;;15.50;99.90;;;;;;5094573;28;20040;-75
2023/09/03 00:19:51;;;;;;;18.63;14.70;;;16.20;99.90;;;;;;5077908;28;20384;-75
2023/09/03 00:22:17;;;;;;;19.65;13.90;;;16.10;99.90;;;;;;5094474;28;20044;-75
2023/09/03 00:24:42;;;;;;;20.42;13.27;;;15.80;99.90;;;;;;5094324;28;20113;-75
2023/09/03 00:27:09;;;;;;;20.33;14.60;;;;;;;;;;5077682;28;20040;-75
2023/09/03 00:29:35;;;;;;;21.45;15.52;;;14.20;99.90;;;;;;5094375;28;20043;-75
2023/09/03 00:32:01;;;;;;;20.70;14.50;;;;;;;;;;5077818;28;20036;-75
2023/09/03 00:34:28;;;;;;;19.23;14.43;;;;;;;;;;5077244;28;20507;-75
2023/09/03 00:36:54;;;;;;;18.27;14.13;;;;;;;;;;5094292;28;20050;-75
2023/09/03 00:39:20;;;;;;;20.20;13.68;;;;;;;;;;5094122;28;20040;-76
2023/09/03 00:41:46;;;;;;;19.58;14.90;;;;;;;;;;5094523;28;20044;-75
2023/09/03 00:44:14;;;;;;;25.77;16.83;;;;;;;;;;5094115;28;20036;-75
2023/09/03 00:46:42;;;;;;;20.30;15.40;;;16.20;99.90;;;;;;5094130;28;20036;-75
2023/09/03 00:49:08;;;;;;;22.17;15.88;;;;;;;;;;5094069;28;20543;-75
2023/09/03 00:51:36;;;;;;;22.27;15.27;;;15.10;99.90;;;;;;5094022;28;20036;-75
2023/09/03 00:54:03;;;;;;;21.08;15.18;;;14.40;99.90;;;;;;5094286;28;20044;-76
2023/09/03 00:56:29;;;;;;;22.90;14.75;;;15.30;99.90;;;;;;5094261;28;20130;-76
2023/09/03 00:58:55;;;;;;;21.27;16.13;;;15.10;99.90;;;;;;5077040;28;20044;-75
2023/09/03 01:01:22;;;;;;;21.80;15.23;;;15.10;99.90;;;;;;5093758;28;20048;-75
2023/09/03 01:03:48;;;;;;;19.17;14.93;;;15.30;99.90;;;;;;5094160;28;20127;-75
2023/09/03 01:06:14;;;;;;;24.02;15.05;;;;;;;;;;5093714;28;20055;-75
2023/09/03 01:08:41;;;;;;;19.90;14.35;;;;;;;;;;5093663;28;20044;-75
2023/09/03 01:11:25;;;;;;;21.42;15.73;;;16.20;99.90;;;;;;5076951;28;20040;-75
2023/09/03 01:14:07;;;;;;;20.80;15.23;;;15.20;99.90;;;;;;5093364;28;20048;-75
2023/09/03 01:16:37;;;;;;;19.67;15.15;;;15.20;99.90;;;;;;5093761;28;20102;-76
2023/09/03 01:19:17;;;;;;;22.13;16.02;;;15.10;99.90;;;;;;5076510;28;20072;-75
2023/09/03 01:21:57;;;;;;;24.20;16.70;;;14.30;99.90;;;;;;5093523;28;20133;-75
2023/09/03 01:24:35;;;;;;;23.55;15.98;;;15.60;99.90;;;;;;5095986;28;20116;-75
2023/09/03 01:27:10;;;;;;;23.75;16.08;;;15.20;99.90;;;;;;5080037;28;20097;-76
2023/09/03 01:29:40;;;;;;;23.00;15.70;;;15.10;99.90;;;;;;5079834;28;20047;-70
2023/09/03 01:32:08;;;;;;;22.83;16.40;;;15.30;99.90;;;;;;5096784;28;20031;-70
2023/09/03 01:34:34;;;;;;;22.25;15.68;;;;;;;;;;5096633;28;20039;-70
2023/09/03 01:37:01;;;;;;;22.55;16.70;;;;;;;;;;5096711;28;20074;-70
2023/09/03 01:39:27;;;;;;;23.40;17.13;;;;;;;;;;5096697;28;20035;-70
2023/09/03 01:41:53;;;;;;;23.85;15.30;;;15.00;99.90;;;;;;5079560;28;20395;-70
2023/09/03 01:44:19;;;;;;;22.27;14.90;;;;;;;;;;5079459;28;20053;-70
2023/09/03 01:47:02;;;;;;;22.58;15.23;;;15.30;99.90;;;;;;5096512;28;20387;-70
2023/09/03 01:50:00;;;;;;;30.38;15.50;;;16.00;99.90;;;;;;5096407;28;20051;-70
2023/09/03 01:53:04;;;;;;;20.52;14.65;;;15.10;99.90;;;;;;5096414;28;20111;-70
2023/09/03 01:55:35;;;;;;;23.00;14.88;;;15.40;99.90;;;;;;5096013;28;20424;-70
2023/09/03 01:58:05;;;;;;;20.95;14.75;;;15.80;99.90;;;;;;5096161;28;20047;-70
2023/09/03 02:00:32;;;;;;;19.85;14.02;;;15.00;99.90;;;;;;5079309;28;20112;-70
2023/09/03 02:03:01;;;;;;;19.52;15.10;;;14.70;99.90;;;;;;5095990;28;20044;-70
2023/09/03 02:05:27;;;;;;;19.50;12.73;;;;;;;;;;5096046;28;20051;-75
2023/09/03 02:07:53;;;;;;;20.23;13.88;;;;;;;;;;5096168;28;20084;-75
2023/09/03 02:10:19;;;;;;;20.55;14.25;;;15.20;99.90;;;;;;5096239;28;20043;-75
2023/09/03 02:12:45;;;;;;;20.08;13.30;;;;;;;;;;5096106;28;20448;-75
2023/09/03 02:15:11;;;;;;;17.85;12.63;;;;;;;;;;5096184;28;20510;-75
2023/09/03 02:17:37;;;;;;;18.58;13.63;;;;;;;;;;5096534;28;20051;-76
2023/09/03 02:20:04;;;;;;;16.00;12.85;;;15.80;99.90;;;;;;5117778;28;20027;-74
2023/09/03 02:22:30;;;;;;;17.27;13.63;;;;;;;;;;5098727;28;20073;-74
2023/09/03 02:24:56;;;;;;;18.40;14.50;;;15.90;99.90;;;;;;5102393;28;20058;-74
2023/09/03 02:27:22;;;;;;;18.80;13.70;;;;;;;;;;5118436;28;20044;-75
2023/09/03 02:29:47;;;;;;;19.00;14.35;;;15.30;99.90;;;;;;5102330;28;20043;-75
2023/09/03 02:32:14;;;;;;;20.55;14.60;;;;;;;;;;5110421;28;20050;-75
2023/09/03 02:34:40;;;;;;;20.08;14.07;;;;;;;;;;5098020;28;20043;-75
2023/09/03 02:37:06;;;;;;;22.15;14.15;;;;;;;;;;5097869;28;20593;-75
2023/09/03 02:39:32;;;;;;;21.92;15.38;;;;;;;;;;5097174;28;20047;-75
2023/09/03 02:41:58;;;;;;;22.85;14.90;;;;;;;;;;5095910;28;20042;-75
2023/09/03 02:44:24;;;;;;;21.30;14.18;;;;;;;;;;5078808;28;20462;-76
2023/09/03 02:46:50;;;;;;;21.40;13.55;;;;;;;;;;5095406;28;20119;-76
2023/09/03 02:49:16;;;;;;;18.35;13.95;;;;;;;;;;5095414;28;20043;-75
2023/09/03 02:51:42;;;;;;;19.35;15.02;;;;;;;;;;5078512;28;20043;-75
2023/09/03 02:54:08;;;;;;;18.80;13.88;;;;;;;;;;5062174;28;20112;-75
2023/09/03 02:56:35;;;;;;;21.48;13.85;;;;;;;;;;5078469;28;20044;-75
2023/09/03 02:59:01;;;;;;;21.52;15.57;;;;;;;;;;5078383;28;20079;-75
2023/09/03 03:01:27;;;;;;;19.15;13.85;;;;;;;;;;5095224;28;20042;-75
2023/09/03 03:03:53;;;;;;;21.25;14.68;;;;;;;;;;5095514;28;20046;-75
2023/09/03 03:06:19;;;;;;;21.75;14.05;;;;;;;;;;5095308;28;20078;-75
2023/09/03 03:08:45;;;;;;;21.10;13.93;;;;;;;;;;5095425;28;20047;-75
2023/09/03 03:11:16;;;;;;;21.67;14.43;;;14.70;99.90;;;;;;5078231;28;20131;-75
2023/09/03 03:13:43;;;;;;;19.15;13.27;;;;;;;;;;5094790;28;20044;-74
2023/09/03 03:16:13;;;;;;;18.17;13.70;;;14.10;99.90;;;;;;5078072;28;20571;-75
2023/09/03 03:18:45;;;;;;;19.65;13.32;;;14.30;99.90;;;;;;5078687;28;20039;-74
2023/09/03 03:21:18;;;;;;;21.38;13.52;;;14.50;99.90;;;;;;5095215;28;20051;-75
2023/09/03 03:23:46;;;;;;;19.08;14.15;;;;;;;;;;5078238;28;20540;-75
2023/09/03 03:26:12;;;;;;;19.58;11.77;;;;;;;;;;5094744;28;20040;-75
2023/09/03 03:28:38;;;;;;;20.75;12.52;;;14.10;99.90;;;;;;5094894;28;20061;-74
2023/09/03 03:31:11;;;;;;;22.35;13.57;;;13.00;99.90;;;;;;5094964;28;20039;-75
2023/09/03 03:33:39;;;;;;;23.42;12.70;;;14.10;99.90;;;;;;5078133;28;20046;-75
2023/09/03 03:36:05;;;;;;;21.63;14.18;;;;;;;;;;5094815;28;20068;-75
2023/09/03 03:38:31;;;;;;;18.95;13.02;;;;;;;;;;5094808;28;20031;-74
2023/09/03 03:41:24;;;;;;;18.15;12.90;;;14.10;99.90;;;;;;5081580;28;20053;-75
2023/09/03 03:43:51;;;;;;;15.82;11.93;;;14.00;99.90;;;;;;5093795;28;20047;-75
2023/09/03 03:46:19;;;;;;;19.40;12.93;;;14.20;99.90;;;;;;5081973;28;20054;-75
2023/09/03 03:48:49;;;;;;;20.40;13.95;;;13.90;99.90;;;;;;5098507;28;20032;-75
2023/09/03 03:51:15;;;;;;;17.33;12.38;;;;;;;;;;5098583;28;20046;-74
2023/09/03 03:53:41;;;;;;;16.50;12.70;;;;;;;;;;5098406;28;20082;-75
2023/09/03 03:56:12;;;;;;;21.30;11.90;;;14.10;99.90;;;;;;5098377;28;20040;-74
2023/09/03 03:58:39;;;;;;;15.13;12.40;;;14.80;99.90;;;;;;5081241;28;20043;-75
2023/09/03 04:01:18;;;;;;;18.92;12.38;;;14.10;99.90;;;;;;5098321;28;20036;-75
2023/09/03 04:03:46;;;;;;;19.52;13.00;;;14.00;99.90;;;;;;5098313;28;20035;-75
2023/09/03 04:06:13;;;;;;;16.67;12.30;;;;;;;;;;5098216;28;20039;-74
2023/09/03 04:08:39;;;;;;;18.42;12.70;;;14.10;99.90;;;;;;5098145;28;20089;-75
2023/09/03 04:11:10;;;;;;;16.92;12.65;;;14.40;99.90;;;;;;5098102;28;20083;-76
2023/09/03 04:13:37;;;;;;;17.95;12.27;;;14.10;99.90;;;;;;5098353;28;20043;-75
2023/09/03 04:16:14;;;;;;;15.95;12.60;;;13.20;99.90;;;;;;5097987;28;20047;-75
2023/09/03 04:18:40;;;;;;;20.90;12.85;;;;;;;;;;5097922;28;20036;-75
2023/09/03 04:21:06;;;;;;;18.00;11.65;;;;;;;;;;5098205;28;20169;-75
2023/09/03 04:23:33;;;;;;;15.88;11.73;;;;;;;;;;5097832;28;20047;-75
2023/09/03 04:25:59;;;;;;;18.08;12.27;;;13.20;99.90;;;;;;5080999;28;20044;-75
2023/09/03 04:28:25;;;;;;;17.10;11.80;;;14.20;99.90;;;;;;5097772;28;20479;-76
2023/09/03 04:30:56;;;;;;;18.25;11.85;;;14.00;99.90;;;;;;5081212;28;20088;-75
2023/09/03 04:33:23;;;;;;;18.35;12.70;;;;;;;;;;5098025;28;20106;-75
2023/09/03 04:36:00;;;;;;;19.08;12.25;;;13.90;99.90;;;;;;5080915;28;20043;-75
2023/09/03 04:38:27;;;;;;;16.70;12.18;;;15.10;99.90;;;;;;5097589;28;20100;-75
2023/09/03 04:40:53;;;;;;;16.45;11.68;;;14.10;99.90;;;;;;5098001;28;20436;-75
2023/09/03 04:43:20;;;;;;;15.52;11.20;;;;;;;;;;5097592;28;20124;-75
2023/09/03 04:45:50;;;;;;;18.20;12.55;;;13.20;99.90;;;;;;5097630;28;20388;-70
2023/09/03 04:48:17;;;;;;;19.27;13.00;;;15.10;99.90;;;;;;5097809;28;20043;-70
2023/09/03 04:50:43;;;;;;;18.77;12.70;;;;;;;;;;5097646;28;20548;-70
2023/09/03 04:53:11;;;;;;;15.90;11.52;;;15.00;99.90;;;;;;5097691;28;20102;-70
2023/09/03 04:55:37;;;;;;;16.90;12.00;;;14.30;99.90;;;;;;5064935;28;20047;-70
2023/09/03 04:58:04;;;;;;;16.67;11.65;;;;;;;;;;5097748;28;20467;-70
2023/09/03 05:00:30;;;;;;;17.65;11.82;;;;;;;;;;5097605;28;20178;-70
2023/09/03 05:02:56;;;;;;;14.38;10.27;;;;;;;;;;5098011;28;20039;-70
2023/09/03 05:05:22;;;;;;;17.60;11.07;;;12.90;99.90;;;;;;5097509;28;20039;-70
2023/09/03 05:07:48;;;;;;;15.98;11.38;;;13.90;99.90;;;;;;5097691;28;20092;-70
2023/09/03 05:10:14;;;;;;;17.17;11.77;;;;;;;;;;5097263;28;20044;-70
2023/09/03 05:12:41;;;;;;;16.02;11.32;;;;;;;;;;5097457;28;20047;-70
2023/09/03 05:15:11;;;;;;;16.45;11.63;;;13.90;99.90;;;;;;5097653;28;20055;-70
2023/09/03 05:17:39;;;;;;;15.48;11.32;;;;;;;;;;5080462;28;20139;-75
2023/09/03 05:20:05;;;;;;;16.33;11.30;;;14.80;99.90;;;;;;5081565;28;20393;-76
2023/09/03 05:22:31;;;;;;;20.90;10.77;;;;;;;;;;5097368;28;20036;-75
2023/09/03 05:24:57;;;;;;;16.73;11.48;;;;;;;;;;5097218;28;20526;-75
2023/09/03 05:27:23;;;;;;;18.98;11.55;;;13.20;99.90;;;;;;5098173;28;20042;-76
2023/09/03 05:29:49;;;;;;;17.00;11.45;;;;;;;;;;5115619;28;20036;-75
2023/09/03 05:32:16;;;;;;;17.02;10.85;;;;;;;;;;5097117;28;20047;-75
2023/09/03 05:34:42;;;;;;;15.60;10.70;;;;;;;;;;5098316;28;20047;-75
2023/09/03 05:37:08;;;;;;;15.40;10.60;;;;;;;;;;5080701;28;20047;-74
2023/09/03 05:39:34;;;;;;;14.48;10.20;;;;;;;;;;5097801;28;20394;-75
2023/09/03 05:42:00;;;;;;;16.25;11.18;;;;;;;;;;5097801;28;20049;-75
2023/09/03 05:44:26;;;;;;;13.68;10.63;;;;;;;;;;5114833;28;20128;-74
2023/09/03 05:46:52;;;;;;;13.18;10.02;;;;;;;;;;5119558;28;20084;-74
2023/09/03 05:49:18;;;;;;;15.65;11.15;;;;;;;;;;5118050;28;20043;-74
2023/09/03 05:51:44;;;;;;;15.15;10.60;;;;;;;;;;5117772;28;20071;-75
2023/09/03 05:54:10;;;;;;;13.95;10.32;;;;;;;;;;5117862;28;20031;-74
2023/09/03 05:56:36;;;;;;;16.58;10.27;;;;;;;;;;5107474;28;20039;-75
2023/09/03 05:59:08;;;;;;;13.68;9.60;;;14.30;99.90;;;;;;5080512;28;20035;-75
2023/09/03 06:01:34;;;;;;;15.25;11.13;;;14.40;99.90;;;;;;5063834;28;20043;-74
2023/09/03 06:04:04;;;;;;;13.82;9.57;;;;;;;;;;5063650;28;20088;-74
2023/09/03 06:06:38;;;;;;;16.88;10.65;;;14.40;99.90;;;;;;5096353;28;20035;-75
2023/09/03 06:09:05;;;;;;;15.43;10.63;;;;;;;;;;5095951;28;20403;-74
2023/09/03 06:11:31;;;;;;;14.57;9.77;;;;;;;;;;5096098;28;20043;-74
2023/09/03 06:13:57;;;;;;;11.77;9.00;;;;;;;;;;5095755;28;20178;-74
2023/09/03 06:16:24;;;;;;;12.30;9.20;;;;;;;;;;5095984;28;20108;-75
2023/09/03 06:18:50;;;;;;;13.93;10.15;;;;;;;;;;5095860;28;20032;-75
2023/09/03 06:21:16;;;;;;;14.48;9.57;;;;;;;;;;5095713;28;20040;-74
2023/09/03 06:23:42;;;;;;;13.43;10.38;;;;;;;;;;5095901;28;20478;-75
2023/09/03 06:26:08;;;;;;;14.43;10.70;;;;;;;;;;5078588;28;20044;-75
2023/09/03 06:28:34;;;;;;;15.27;9.93;;;;;;;;;;5095413;28;20052;-75
2023/09/03 06:31:01;;;;;;;18.10;11.35;;;;;;;;;;5095807;28;20484;-75
2023/09/03 06:33:27;;;;;;;14.43;10.68;;;15.60;99.90;;;;;;5095392;28;20791;-75
2023/09/03 06:35:54;;;;;;;14.57;9.60;;;;;;;;;;5095245;28;20116;-75
2023/09/03 06:38:20;;;;;;;15.05;10.00;;;;;;;;;;5078499;28;20042;-75
2023/09/03 06:40:46;;;;;;;15.50;9.93;;;;;;;;;;5095371;28;20123;-75
2023/09/03 06:43:11;;;;;;;15.20;9.57;;;15.90;99.90;;;;;;5095320;28;20043;-75
2023/09/03 06:45:37;;;;;;;16.17;11.02;;;16.20;99.90;;;;;;5078415;28;20130;-75
2023/09/03 06:48:03;;;;;;;12.13;9.65;;;15.20;99.90;;;;;;5078948;28;20047;-75
2023/09/03 06:50:29;;;;;;;16.42;9.68;;;15.10;99.90;;;;;;5078920;28;20515;-75
2023/09/03 06:52:54;;;;;;;15.65;9.73;;;15.20;99.90;;;;;;5095714;28;20039;-75
2023/09/03 06:55:21;;;;;;;11.70;8.98;;;16.60;99.90;;;;;;5095278;28;20365;-76
2023/09/03 06:57:47;;;;;;;14.55;9.15;;;;;;;;;;5078757;28;20039;-76
2023/09/03 07:00:13;;;;;;;14.18;8.57;;;14.60;99.90;;;;;;5079024;28;20048;-76
2023/09/03 07:02:39;;;;;;;15.50;9.48;;;;;;;;;;5095243;28;20114;-75
2023/09/03 07:05:05;;;;;;;11.60;8.80;;;;;;;;;;5095444;28;20404;-75
2023/09/03 07:07:31;;;;;;;13.25;10.10;;;;;;;;;;5094947;28;20097;-75
2023/09/03 07:09:58;;;;;;;13.50;8.90;;;;;;;;;;5095180;28;20077;-75
2023/09/03 07:12:24;;;;;;;16.83;9.63;;;;;;;;;;5061988;28;20043;-75
2023/09/03 07:14:51;;;;;;;14.88;9.60;;;;;;;;;;5082365;28;20044;-75
2023/09/03 07:17:17;;;;;;;20.42;8.75;;;;;;;;;;5099336;28;20043;-75
2023/09/03 07:19:43;;;;;;;13.90;9.32;;;;;;;;;;5099205;28;20393;-75
2023/09/03 07:22:09;;;;;;;15.65;9.32;;;;;;;;;;5098796;28;20123;-76
2023/09/03 07:24:36;;;;;;;21.33;12.07;;;;;;;;;;5098931;28;20127;-76
2023/09/03 07:27:01;;;;;;;11.98;9.13;;;16.80;99.90;;;;;;5099140;28;20051;-75
2023/09/03 07:29:27;;;;;;;17.17;9.05;;;;;;;;;;5082211;28;20044;-75
2023/09/03 07:31:54;;;;;;;13.30;9.43;;;;;;;;;;5099053;28;20484;-75
2023/09/03 07:34:20;;;;;;;13.98;9.20;;;;;;;;;;5099137;28;20058;-75
2023/09/03 07:36:46;;;;;;;14.40;8.73;;;;;;;;;;5081841;28;20047;-75
2023/09/03 07:39:12;;;;;;;12.80;9.18;;;;;;;;;;5098599;28;20067;-75
2023/09/03 07:41:39;;;;;;;13.00;9.07;;;16.70;99.90;;;;;;5064989;28;20071;-75
2023/09/03 07:44:05;;;;;;;14.93;8.50;;;;;;;;;;5099090;28;20454;-75
2023/09/03 07:46:32;;;;;;;12.90;8.93;;;17.10;99.90;;;;;;5098608;28;20109;-75
2023/09/03 07:48:57;;;;;;;13.65;8.80;;;16.90;99.90;;;;;;5098771;28;20130;-74
2023/09/03 07:51:23;;;;;;;14.52;9.70;;;16.30;99.90;;;;;;5098656;28;20466;-74
2023/09/03 07:53:49;;;;;;;11.95;8.63;;;17.50;99.90;;;;;;5116607;28;20054;-75
2023/09/03 07:56:16;;;;;;;12.75;8.90;;;;;;;;;;5098451;28;20048;-75
2023/09/03 07:58:42;;;;;;;11.82;8.63;;;;;;;;;;5098279;28;20085;-75
2023/09/03 08:01:12;;;;;;;12.80;8.95;;;16.80;99.90;;;;;;5098335;28;20058;-75
2023/09/03 08:03:43;;;;;;;13.05;9.52;;;16.20;99.90;;;;;;5098184;28;20491;-75
2023/09/03 08:06:09;;;;;;;14.80;10.20;;;17.70;99.90;;;;;;5098451;28;20436;-75
2023/09/03 08:08:36;;;;;;;14.13;8.77;;;;;;;;;;5098041;28;20527;-75
2023/09/03 08:11:02;;;;;;;17.58;9.75;;;;;;;;;;5098474;28;20113;-75
2023/09/03 08:13:28;;;;;;;13.48;8.50;;;;;;;;;;5098151;28;20518;-75
2023/09/03 08:15:54;;;;;;;12.77;8.00;;;17.40;99.90;;;;;;5097809;28;20039;-75
2023/09/03 08:18:21;;;;;;;12.90;7.57;;;17.50;99.90;;;;;;5097763;28;20120;-75
2023/09/03 08:20:51;;;;;;;11.68;7.93;;;18.00;99.90;;;;;;5097845;28;20039;-75
2023/09/03 08:23:18;;;;;;;15.02;7.00;;;;;;;;;;5081068;28;20100;-75
2023/09/03 08:25:44;;;;;;;11.98;6.65;;;18.00;99.90;;;;;;5093457;28;20560;-75
2023/09/03 08:28:11;;;;;;;11.65;6.57;;;;;;;;;;5094282;28;20058;-75
2023/09/03 08:30:37;;;;;;;9.48;6.75;;;17.60;99.90;;;;;;5094417;28;20072;-70
2023/09/03 08:33:03;;;;;;;10.07;6.50;;;;;;;;;;5094562;28;20058;-70
2023/09/03 08:35:30;;;;;;;14.45;7.00;;;;;;;;;;5094049;28;20484;-70
2023/09/03 08:37:56;;;;;;;13.98;7.53;;;;;;;;;;5094060;28;20051;-76
2023/09/03 08:40:24;;;;;;;11.73;6.63;;;;;;;;;;5077299;28;20488;-74
2023/09/03 08:42:52;;;;;;;11.90;7.57;;;18.40;99.90;;;;;;5094145;28;20048;-75
2023/09/03 08:45:19;;;;;;;13.70;6.90;;;17.80;99.90;;;;;;5094233;28;20191;-74
2023/09/03 08:47:45;;;;;;;13.70;6.18;;;17.00;99.90;;;;;;5093931;28;20169;-75
2023/09/03 08:50:13;;;;;;;11.73;6.40;;;18.00;99.90;;;;;;5093847;28;20047;-75
2023/09/03 08:52:40;;;;;;;15.48;6.22;;;18.00;99.90;;;;;;5077202;28;20055;-75
2023/09/03 08:55:07;;;;;;;9.25;5.18;;;18.00;99.90;;;;;;5094037;28;20043;-75
2023/09/03 08:57:34;;;;;;;9.38;6.10;;;17.70;99.90;;;;;;5093832;28;20040;-75
2023/09/03 09:00:03;;;;;;;11.13;5.97;;;18.30;99.90;;;;;;5094802;28;20032;-75
2023/09/03 09:02:29;;;;;;;10.90;5.63;;;18.10;99.90;;;;;;5097638;28;20051;-75
2023/09/03 09:04:55;;;;;;;9.98;5.43;;;17.20;99.90;;;;;;5108978;28;20050;-75
2023/09/03 09:07:22;;;;;;;10.02;5.47;;;;;;;;;;5090681;28;20040;-75
2023/09/03 09:09:50;;;;;;;12.15;6.88;;;19.10;99.90;;;;;;5085793;28;20076;-75
2023/09/03 09:12:28;;;;;;;9.73;4.90;;;18.00;99.90;;;;;;5102831;28;20059;-75
2023/09/03 09:14:59;;;;;;;14.98;5.45;;;18.60;99.90;;;;;;5101677;28;20072;-75
2023/09/03 09:17:25;;;;;;;7.53;5.67;;;18.40;99.90;;;;;;5092171;28;20349;-74
2023/09/03 09:19:51;;;;;;;11.63;5.60;;;19.10;99.90;;;;;;5101434;28;20032;-75
2023/09/03 09:22:17;;;;;;;7.80;5.38;;;19.30;99.90;;;;;;5102743;28;20040;-75
2023/09/03 09:24:47;;;;;;;6.85;4.50;;;18.80;99.90;;;;;;5100274;28;20066;-76
2023/09/03 09:27:18;;;;;;;9.07;4.60;;;19.70;99.90;;;;;;5099770;28;20043;-75
2023/09/03 09:29:44;;;;;;;10.57;5.90;;;18.50;99.90;;;;;;5094224;28;20101;-76
2023/09/03 09:32:18;;;;;;;9.82;5.03;;;19.10;99.90;;;;;;5093805;28;20086;-75
2023/09/03 09:34:44;;;;;;;8.93;4.95;;;19.50;99.90;;;;;;5093614;28;20441;-76
2023/09/03 09:37:11;;;;;;;10.80;4.53;;;19.70;99.90;;;;;;5092143;28;20044;-75
2023/09/03 09:39:44;;;;;;;10.20;5.93;;;18.90;99.90;;;;;;5076497;28;20085;-76
2023/09/03 09:42:12;;;;;;;8.15;5.40;;;20.10;99.90;;;;;;5094306;28;20080;-75
2023/09/03 09:44:54;;;;;;;7.82;4.82;;;20.50;99.90;;;;;;5093128;28;20069;-76
2023/09/03 09:47:21;;;;;;;8.88;4.65;;;20.10;99.90;;;;;;5092982;28;20055;-76
2023/09/03 09:49:47;;;;;;;7.95;4.00;;;19.70;99.90;;;;;;5093148;28;20040;-76
2023/09/03 09:52:14;;;;;;;7.28;3.47;;;20.50;99.90;;;;;;5076011;28;20040;-74
2023/09/03 09:54:41;;;;;;;7.90;3.90;;;19.20;99.90;;;;;;5092900;28;20046;-76
2023/09/03 09:57:23;;;;;;;7.30;3.80;;;19.10;99.90;;;;;;5093195;28;20044;-75
2023/09/03 09:59:59;;;;;;;7.17;3.67;;;19.10;99.90;;;;;;5093397;28;20480;-75
2023/09/03 10:02:26;;;;;;;5.88;4.05;;;20.30;99.90;;;;;;5092801;28;20040;-75
2023/09/03 10:04:53;;;;;;;7.43;3.45;;;20.30;99.90;;;;;;5093870;28;20124;-75
2023/09/03 10:07:19;;;;;;;7.82;4.05;;;20.20;99.90;;;;;;5092465;28;20040;-74
2023/09/03 10:09:46;;;;;;;8.25;3.95;;;20.80;99.90;;;;;;5093109;28;20048;-76
2023/09/03 10:12:13;;;;;;;6.47;3.15;;;20.60;99.90;;;;;;5092802;28;20130;-76
2023/09/03 10:14:39;;;;;;;11.30;4.43;;;21.50;99.90;;;;;;5092705;28;20388;-74
2023/09/03 10:17:12;;;;;;;8.93;4.13;;;20.50;99.90;;;;;;5092623;28;20075;-76
2023/09/03 10:20:04;;;;;;;9.25;3.65;;;21.40;99.90;;;;;;5075435;28;20048;-75
2023/09/03 10:22:31;;;;;;;4.90;2.72;;;20.30;99.90;;;;;;5092533;28;20036;-75
2023/09/03 10:25:05;;;;;;;5.18;2.38;;;20.90;99.90;;;;;;5092320;28;20565;-74
2023/09/03 10:27:35;;;;;;;4.95;3.35;;;20.90;99.90;;;;;;5075820;28;20044;-75
2023/09/03 10:30:05;;;;;;;5.82;3.10;;;21.00;99.90;;;;;;5092596;28;20054;-75
2023/09/03 10:32:32;;;;;;;8.65;2.80;;;21.00;99.90;;;;;;5092619;28;20406;-75
2023/09/03 10:35:05;;;;;;;5.28;2.85;;;21.60;99.90;;;;;;5092245;28;20055;-75
2023/09/03 10:37:41;;;;;;;4.63;2.50;;;21.20;99.00;;;;;;5075178;28;20124;-75
2023/09/03 10:40:24;;;;;;;5.03;2.50;;;21.10;99.90;;;;;;5092182;28;20044;-76
2023/09/03 10:42:51;;;;;;;5.93;2.50;;;21.20;99.90;;;;;;5092929;28;20040;-75
2023/09/03 10:45:18;;;;;;;6.32;2.35;;;;;;;;;;5092369;28;20082;-75
2023/09/03 10:48:04;;;;;;;5.05;2.38;;;21.70;99.90;;;;;;5092029;28;20051;-76
2023/09/03 10:50:50;;;;;;;3.53;2.10;;;21.00;98.30;;;;;;5092028;28;20488;-75
2023/09/03 10:53:38;;;;;;;3.13;1.98;;;20.80;99.90;;;;;;5075613;28;20043;-75
2023/09/03 10:56:12;;;;;;;5.82;2.33;;;20.90;99.90;;;;;;5092250;28;20177;-75
2023/09/03 10:58:57;;;;;;;4.47;2.60;;;21.50;99.00;;;;;;5075372;28;20054;-75
2023/09/03 11:01:26;;;;;;;6.50;2.38;;;;;;;;;;5092016;28;20118;-75
2023/09/03 11:03:53;;;;;;;5.13;2.15;;;21.40;98.80;;;;;;5092085;28;20040;-76
2023/09/03 11:06:20;;;;;;;5.72;2.38;;;22.00;99.90;;;;;;5092387;28;20388;-76
2023/09/03 11:08:48;;;;;;;4.50;2.20;;;22.10;99.90;;;;;;5075173;28;20079;-76
2023/09/03 11:11:21;;;;;;;4.47;2.20;;;22.30;97.50;;;;;;5091839;28;20040;-75
2023/09/03 11:13:53;;;;;;;8.52;2.30;;;22.50;99.90;;;;;;5091919;28;20040;-75
2023/09/03 11:16:33;;;;;;;5.10;2.53;;;22.20;99.90;;;;;;5092044;28;20154;-76
2023/09/03 11:19:00;;;;;;;3.92;1.90;;;20.30;97.10;;;;;;5092099;28;20123;-76
2023/09/03 11:21:29;;;;;;;6.30;2.47;;;22.10;99.90;;;;;;5092258;28;20437;-76
2023/09/03 11:24:16;;;;;;;5.53;2.00;;;22.70;98.70;;;;;;5093551;28;20422;-76
2023/09/03 11:26:43;;;;;;;8.02;2.33;;;22.20;97.30;;;;;;5092046;28;20048;-76
2023/09/03 11:29:19;;;;;;;4.18;2.25;;;21.30;99.90;;;;;;5091985;28;20048;-75
2023/09/03 11:31:47;;;;;;;4.05;2.15;;;21.60;99.50;;;;;;5092386;28;20075;-75
2023/09/03 11:34:20;;;;;;;3.55;1.90;;;22.00;99.60;;;;;;5092103;28;20047;-76
2023/09/03 11:36:46;;;;;;;5.80;2.08;;;22.80;99.90;;;;;;5075438;28;20055;-77
2023/09/03 11:39:16;;;;;;;3.53;2.10;;;22.70;99.90;;;;;;5091821;28;20048;-76
2023/09/03 11:41:46;;;;;;;7.22;2.92;;;21.50;99.90;;;;;;5092082;28;20036;-76
2023/09/03 11:44:15;;;;;;;5.05;2.08;;;21.40;99.90;;;;;;5091800;28;20396;-75
2023/09/03 11:47:02;;;;;;;3.92;1.98;;;22.00;99.90;;;;;;5092241;28;20036;-76
2023/09/03 11:49:28;;;;;;;4.07;2.00;;;22.10;99.90;;;;;;5091887;28;20044;-76
2023/09/03 11:51:54;;;;;;;5.90;2.08;;;22.40;99.90;;;;;;5091974;28;20093;-75
2023/09/03 11:54:26;;;;;;;7.72;2.30;;;21.90;99.90;;;;;;5092065;28;20123;-75
2023/09/03 11:56:59;;;;;;;5.18;2.28;;;22.30;95.40;;;;;;5091969;28;20040;-75
2023/09/03 11:59:25;;;;;;;5.63;2.20;;;22.10;95.80;;;;;;5075041;28;20055;-75
2023/09/03 12:01:53;;;;;;;4.68;2.53;;;21.70;99.90;;;;;;5078791;28;20080;-75
2023/09/03 12:04:20;;;;;;;6.18;2.05;;;22.40;96.80;;;;;;5096857;28;20055;-75
2023/09/03 12:06:46;;;;;;;5.47;2.05;;;23.10;99.60;;;;;;5095873;28;20099;-76
2023/09/03 12:09:12;;;;;;;5.50;2.30;;;23.10;99.30;;;;;;5095840;28;20082;-75
2023/09/03 12:11:38;;;;;;;4.97;2.05;;;21.30;99.10;;;;;;5095819;28;20044;-76
2023/09/03 12:14:11;;;;;;;4.50;1.67;;;22.30;95.80;;;;;;5095417;28;20086;-76
2023/09/03 12:16:47;;;;;;;5.90;2.33;;;22.90;99.40;;;;;;5095778;28;20494;-76
2023/09/03 12:19:13;;;;;;;3.70;1.77;;;21.60;98.20;;;;;;5078997;28;20044;-76
2023/09/03 12:21:38;;;;;;;3.75;1.65;;;21.60;98.60;;;;;;5103517;28;20047;-76
2023/09/03 12:24:08;;;;;;;3.08;1.83;;;22.30;98.90;;;;;;5109167;28;20173;-76
2023/09/03 12:26:35;;;;;;;4.90;1.85;;;21.50;98.40;;;;;;5109023;28;20056;-76
2023/09/03 12:29:03;;;;;;;3.78;1.70;;;22.60;98.90;;;;;;5114493;28;20020;-76
2023/09/03 12:31:42;;;;;;;3.60;1.60;;;22.10;98.00;;;;;;5083771;28;20054;-76
2023/09/03 12:34:09;;;;;;;3.60;2.20;;;22.90;97.80;;;;;;5103107;28;20051;-77
2023/09/03 12:36:54;;;;;;;4.38;2.03;;;22.50;97.90;;;;;;5102471;28;20040;-77
2023/09/03 12:39:30;;;;;;;3.28;1.90;;;23.50;96.60;;;;;;5102686;28;20051;-76
2023/09/03 12:41:57;;;;;;;3.58;1.50;;;23.00;93.90;;;;;;5086409;28;20047;-76
2023/09/03 12:44:26;;;;;;;4.18;1.60;;;22.70;92.90;;;;;;5100757;28;20040;-77
2023/09/03 12:46:52;;;;;;;4.82;1.50;;;23.20;97.90;;;;;;5103329;28;20391;-77
2023/09/03 12:49:19;;;;;;;5.28;1.80;;;21.70;97.60;;;;;;5085749;28;20068;-77
2023/09/03 12:51:45;;;;;;;4.55;1.85;;;22.70;96.40;;;;;;5096399;28;20075;-77
2023/09/03 12:54:12;;;;;;;4.22;1.67;;;23.10;93.20;;;;;;5093742;28;20451;-77
2023/09/03 12:56:38;;;;;;;2.53;1.50;;;23.10;94.90;;;;;;5095462;28;20044;-77
2023/09/03 12:59:06;;;;;;;3.50;1.70;;;23.20;96.80;;;;;;5093692;28;20511;-76
2023/09/03 13:01:37;;;;;;;1.58;1.40;;;23.20;92.60;;;;;;5076939;28;20066;-77
2023/09/03 13:04:07;;;;;;;2.28;1.50;;;22.20;96.20;;;;;;5093525;28;20483;-77
2023/09/03 13:06:33;;;;;;;3.05;1.80;;;;;;;;;;5093755;28;20051;-77
2023/09/03 13:08:59;;;;;;;2.83;1.45;;;;;;;;;;5094012;28;20044;-76
2023/09/03 13:11:25;;;;;;;3.47;1.52;;;23.50;96.60;;;;;;5093784;28;20119;-77
2023/09/03 13:13:51;;;;;;;4.18;2.40;;;;;;;;;;5094256;28;20489;-77
2023/09/03 13:16:22;;;;;;;3.33;1.95;;;22.50;96.70;;;;;;5093499;28;20130;-77
2023/09/03 13:18:49;;;;;;;2.92;1.50;;;22.10;96.30;;;;;;5093521;28;20400;-77
2023/09/03 13:21:18;;;;;;;3.85;1.90;;;22.60;91.80;;;;;;5093322;28;20047;-77